Time;durP1;ratioP1;P1;durP2;ratioP2;P2;SDS_P1;SDS_P2;PMS_P1;PMS_P2;Temp;Humidity;BMP_temperature;BMP_pressure;BME280_temperature;BME280_humidity;BME280_pressure;Samples;Min_cycle;Max_cycle;Signal;HPM_P1;HPM_P2
2022/08/22 00:00:21;;;;;;;7.90;3.63;;;;;;;20.43;92.76;101179.16;5036531;28;20057;-75
2022/08/22 00:03:03;;;;;;;9.98;3.88;;;;;;;20.42;93.07;101177.59;5042070;28;20040;-74
2022/08/22 00:05:45;;;;;;;;;;;;;;;20.38;95.86;101177.69;5041928;28;20052;-75
2022/08/22 00:08:17;;;;;;;11.63;4.63;;;;;;;20.34;95.66;101177.03;5035693;28;19924;-78
2022/08/22 00:10:55;;;;;;;16.92;4.70;;;;;;;20.28;95.61;101173.22;5036788;28;20049;-76
2022/08/22 00:13:36;;;;;;;11.63;3.47;;;;;;;20.20;96.22;101165.50;5036153;28;20056;-77
2022/08/22 00:16:08;;;;;;;8.63;3.30;;;;;;;20.16;96.65;101179.66;5055457;28;20052;-76
2022/08/22 00:18:44;;;;;;;8.93;3.75;;;;;;;20.13;97.00;101177.75;5041102;28;20696;-77
2022/08/22 00:21:30;;;;;;;10.30;3.60;;;;;;;20.08;97.64;101174.69;5041675;28;20056;-76
2022/08/22 00:24:17;;;;;;;10.23;3.55;;;;;;;20.03;97.44;101184.47;5038521;28;20048;-74
2022/08/22 00:27:04;;;;;;;11.07;3.53;;;;;;;19.97;99.66;101177.06;5041700;28;20849;-75
2022/08/22 00:29:41;;;;;;;10.82;3.58;;;;;;;19.93;98.71;101182.81;5039478;28;20059;-76
2022/08/22 00:32:25;;;;;;;9.43;3.60;;;;;;;19.88;99.82;101176.97;5036426;28;20048;-76
2022/08/22 00:35:04;;;;;;;12.98;3.72;;;;;;;19.90;98.76;101180.09;5041081;28;20730;-75
2022/08/22 00:37:38;;;;;;;10.02;3.55;;;;;;;19.85;99.55;101173.00;5038415;28;20052;-77
2022/08/22 00:41:02;;;;;;;13.98;3.97;;;;;;;19.79;100.00;101186.06;5037642;28;20056;-77
2022/08/22 00:44:06;;;;;;;11.98;3.85;;;;;;;19.71;100.00;101181.13;5026099;28;20201;-75
2022/08/22 00:46:36;;;;;;;9.40;3.97;;;;;;;19.69;100.00;101178.75;5023074;28;20049;-75
2022/08/22 00:49:30;;;;;;;10.80;3.47;;;;;;;19.61;100.00;101183.00;5036296;28;20052;-74
2022/08/22 00:52:32;;;;;;;12.25;5.07;;;;;;;19.58;100.00;101180.31;5036894;28;20049;-75
2022/08/22 00:55:26;;;;;;;13.07;3.95;;;;;;;19.48;100.00;101179.38;5033371;28;20044;-76
2022/08/22 00:58:21;;;;;;;8.77;3.92;;;;;;;19.37;100.00;101181.72;5041358;28;20057;-74
2022/08/22 01:00:52;;;;;;;12.10;4.20;;;;;;;19.31;100.00;101189.13;5047378;28;20052;-73
2022/08/22 01:03:22;;;;;;;12.70;4.68;;;;;;;19.25;100.00;101184.47;5047050;28;20064;-74
2022/08/22 01:06:31;;;;;;;9.82;3.50;;;;;;;19.24;100.00;101183.69;5031826;28;20339;-76
2022/08/22 01:09:00;;;;;;;9.07;3.47;;;;;;;19.22;100.00;101183.38;5034922;28;20834;-75
2022/08/22 01:11:51;;;;;;;9.85;3.85;;;;;;;19.24;100.00;101186.50;5038972;28;20036;-75
2022/08/22 01:14:28;;;;;;;12.57;4.13;;;;;;;19.22;100.00;101191.78;5044777;28;20051;-72
2022/08/22 01:17:12;;;;;;;13.40;4.20;;;;;;;19.20;100.00;101188.63;5044983;28;20080;-73
2022/08/22 01:20:07;;;;;;;10.63;3.95;;;;;;;19.12;100.00;101181.66;5042054;28;20048;-73
2022/08/22 01:23:11;;;;;;;12.00;4.53;;;;;;;19.11;100.00;101190.50;5038400;28;20053;-74
2022/08/22 01:25:56;;;;;;;15.98;4.90;;;;;;;19.09;100.00;101187.34;5043861;28;20040;-72
2022/08/22 01:28:33;;;;;;;8.32;4.40;;;;;;;18.98;100.00;101186.88;5035902;28;20842;-76
2022/08/22 01:31:19;;;;;;;8.98;4.38;;;;;;;18.93;100.00;101191.00;5035609;28;20147;-75
2022/08/22 01:34:16;;;;;;;14.45;4.18;;;;;;;18.86;100.00;101187.63;5045109;28;20044;-77
2022/08/22 01:37:07;;;;;;;9.63;4.10;;;;;;;18.83;100.00;101188.50;5038201;28;20049;-76
2022/08/22 01:40:11;;;;;;;13.15;4.30;;;;;;;18.83;100.00;101183.66;5045411;28;20049;-76
2022/08/22 01:42:51;;;;;;;9.98;4.15;;;;;;;18.83;100.00;101185.69;5041889;28;20057;-76
2022/08/22 01:45:33;;;;;;;12.52;4.50;;;;;;;18.77;100.00;101188.25;5044288;28;20059;-75
2022/08/22 01:48:38;;;;;;;12.77;4.15;;;;;;;18.74;100.00;101186.34;5040977;28;21150;-75
2022/08/22 01:51:31;;;;;;;11.52;3.85;;;;;;;18.68;100.00;101181.69;5045723;28;20048;-73
2022/08/22 01:54:29;;;;;;;14.40;4.75;;;;;;;18.63;100.00;101182.25;5063398;28;20130;-74
2022/08/22 01:57:06;;;;;;;14.18;3.88;;;;;;;18.58;100.00;101183.56;5054697;28;20059;-74
2022/08/22 01:59:33;;;;;;;10.48;3.97;;;;;;;18.55;100.00;101187.25;5056666;28;20409;-74
2022/08/22 02:02:27;;;;;;;12.48;4.47;;;;;;;18.53;100.00;101183.31;5053838;28;20055;-75
2022/08/22 02:05:05;;;;;;;10.98;4.40;;;;;;;18.57;100.00;101184.78;5055421;28;20055;-73
2022/08/22 02:08:02;;;;;;;16.02;4.22;;;;;;;18.57;100.00;101182.00;5054293;28;20056;-75
2022/08/22 02:10:47;;;;;;;11.90;4.78;;;;;;;18.54;100.00;101188.47;5057146;28;20143;-74
2022/08/22 02:13:26;;;;;;;13.40;4.85;;;;;;;18.50;100.00;101193.41;5056038;28;20049;-74
2022/08/22 02:16:20;;;;;;;12.90;4.75;;;;;;;18.46;100.00;101186.28;5053326;28;20048;-74
2022/08/22 02:19:17;;;;;;;14.55;4.13;;;;;;;18.44;100.00;101194.34;5054408;28;20053;-73
2022/08/22 02:22:03;;;;;;;12.35;4.88;;;;;;;18.39;100.00;101183.69;5054430;28;20059;-73
2022/08/22 02:24:32;;;;;;;10.82;4.65;;;;;;;18.37;100.00;101189.72;5054732;28;20127;-73
2022/08/22 02:27:17;;;;;;;15.88;4.70;;;;;;;18.34;100.00;101186.97;5053608;28;20048;-73
2022/08/22 02:29:49;;;;;;;15.02;5.00;;;;;;;18.32;100.00;101192.25;5056225;28;20123;-75
2022/08/22 02:32:27;;;;;;;12.25;4.38;;;;;;;18.27;100.00;101185.16;5055214;28;20506;-73
2022/08/22 02:35:11;;;;;;;16.00;4.57;;;;;;;18.19;100.00;101180.94;5060336;28;20051;-71
2022/08/22 02:38:08;;;;;;;12.68;4.80;;;;;;;18.20;100.00;101181.72;5057975;28;20139;-73
2022/08/22 02:40:44;;;;;;;14.15;4.45;;;;;;;18.16;100.00;101167.81;5054822;28;20049;-73
2022/08/22 02:43:20;;;;;;;12.73;4.90;;;;;;;18.16;100.00;101176.22;5056303;28;20059;-73
2022/08/22 02:46:11;;;;;;;12.77;4.38;;;;;;;18.13;100.00;101173.50;5054111;28;20140;-72
2022/08/22 02:48:49;;;;;;;13.82;4.97;;;;;;;18.13;100.00;101170.69;5057375;28;20044;-72
2022/08/22 02:51:49;;;;;;;14.43;5.22;;;;;;;18.09;100.00;101170.78;5051409;28;20052;-73
2022/08/22 02:54:37;;;;;;;16.17;5.05;;;;;;;18.04;100.00;101168.50;5058324;28;20048;-71
2022/08/22 02:57:09;;;;;;;13.35;4.90;;;;;;;18.02;100.00;101174.53;5058167;28;20461;-73
2022/08/22 03:00:07;;;;;;;13.07;4.57;;;;;;;18.02;100.00;101175.78;5055343;28;20041;-68
2022/08/22 03:03:05;;;;;;;10.10;4.45;;;;;;;17.97;100.00;101165.88;5058718;28;20056;-74
2022/08/22 03:05:35;;;;;;;12.68;5.85;;;;;;;17.91;100.00;101162.81;5053480;28;20048;-73
2022/08/22 03:08:11;;;;;;;10.30;4.82;;;;;;;17.87;100.00;101164.13;5060214;28;20060;-73
2022/08/22 03:10:44;;;;;;;14.13;4.90;;;;;;;17.82;100.00;101167.47;5052309;28;20053;-74
2022/08/22 03:13:23;;;;;;;12.40;4.50;;;;;;;17.78;100.00;101159.13;5051608;28;20044;-73
2022/08/22 03:16:03;;;;;;;14.98;5.00;;;;;;;17.76;100.00;101155.19;5053216;28;20773;-74
2022/08/22 03:19:05;;;;;;;12.13;5.10;;;;;;;17.71;100.00;101156.50;5057809;28;20056;-73
2022/08/22 03:22:02;;;;;;;13.45;5.25;;;;;;;17.66;100.00;101159.81;5054098;28;20063;-76
2022/08/22 03:24:50;;;;;;;14.27;5.07;;;;;;;17.66;100.00;101156.22;5051729;28;20044;-73
2022/08/22 03:27:18;;;;;;;17.73;5.30;;;;;;;17.65;100.00;101149.06;5057733;28;20048;-73
2022/08/22 03:30:16;;;;;;;15.65;5.10;;;;;;;17.61;100.00;101154.75;5052518;28;20132;-73
2022/08/22 03:32:58;;;;;;;10.68;4.75;;;;;;;17.57;100.00;101147.63;5055833;28;20049;-73
2022/08/22 03:35:48;;;;;;;15.10;5.47;;;;;;;17.55;100.00;101138.91;5056442;28;20056;-74
2022/08/22 03:38:33;;;;;;;13.43;5.63;;;;;;;17.51;100.00;101136.19;5057191;28;20163;-74
2022/08/22 03:41:22;;;;;;;12.40;5.50;;;;;;;17.49;100.00;101135.03;5059627;28;20048;-74
2022/08/22 03:44:02;;;;;;;12.80;5.03;;;;;;;17.50;100.00;101139.41;5060115;28;20136;-72
2022/08/22 03:46:41;;;;;;;14.35;5.50;;;;;;;17.49;100.00;101146.25;5057508;28;20052;-72
2022/08/22 03:49:38;;;;;;;13.07;5.40;;;;;;;17.48;100.00;101137.03;5055133;28;20059;-72
2022/08/22 03:56:25;;;;;;;14.73;4.90;;;;;;;17.35;100.00;101129.75;5041962;28;20044;-73
2022/08/22 03:59:29;;;;;;;14.20;5.90;;;;;;;17.38;100.00;101137.28;5049100;28;20210;-75
2022/08/22 04:02:34;;;;;;;12.90;5.90;;;;;;;17.37;100.00;101135.69;5046925;28;20568;-73
2022/08/22 04:05:27;;;;;;;14.95;6.30;;;;;;;17.33;100.00;101132.97;5052642;28;20437;-73
2022/08/22 04:08:22;;;;;;;11.93;5.88;;;;;;;17.31;100.00;101137.41;5060825;28;20052;-75
2022/08/22 04:11:10;;;;;;;15.85;6.30;;;;;;;17.28;100.00;101133.47;5055206;28;20052;-73
2022/08/22 04:13:58;;;;;;;10.00;5.30;;;;;;;17.27;100.00;101133.91;5054835;28;20209;-74
2022/08/22 04:17:00;;;;;;;19.80;6.57;;;;;;;17.20;100.00;101137.66;5058819;28;20310;-73
2022/08/22 04:19:29;;;;;;;16.75;6.90;;;;;;;17.19;100.00;101135.28;5060592;28;20055;-73
2022/08/22 04:21:58;;;;;;;11.85;5.55;;;;;;;17.16;100.00;101148.13;5055782;28;20852;-73
2022/08/22 04:24:41;;;;;;;13.73;5.95;;;;;;;17.18;100.00;101147.69;5051823;28;20580;-73
2022/08/22 04:27:17;;;;;;;14.63;5.75;;;;;;;17.22;100.00;101146.38;5060330;28;20052;-74
2022/08/22 04:29:57;;;;;;;17.05;6.40;;;;;;;17.25;100.00;101139.94;5059208;28;20049;-74
2022/08/22 04:32:29;;;;;;;15.63;5.85;;;;;;;17.22;100.00;101145.59;5054894;28;20048;-73
2022/08/22 04:35:17;;;;;;;18.33;6.57;;;;;;;17.18;100.00;101133.72;5052924;28;20444;-74
2022/08/22 04:37:51;;;;;;;16.35;6.13;;;;;;;17.20;100.00;101139.66;5059956;28;20048;-75
2022/08/22 04:41:16;;;;;;;17.05;6.32;;;;;;;17.21;100.00;101141.25;5053045;28;20057;-75
2022/08/22 04:43:49;;;;;;;16.10;5.35;;;;;;;17.28;100.00;101144.66;5055387;28;20045;-75
2022/08/22 04:46:25;;;;;;;16.33;6.03;;;;;;;17.28;100.00;101143.88;5056727;28;20057;-75
2022/08/22 04:49:26;;;;;;;15.90;6.15;;;;;;;17.27;100.00;101139.50;5062887;28;20053;-71
2022/08/22 04:52:21;;;;;;;16.90;6.88;;;;;;;17.30;100.00;101141.44;5053701;28;20041;-73
2022/08/22 04:55:16;;;;;;;15.88;6.40;;;;;;;17.29;100.00;101145.47;5052695;28;20045;-75
2022/08/22 04:58:09;;;;;;;16.77;6.97;;;;;;;17.29;100.00;101146.25;5059272;28;20498;-75
2022/08/22 05:01:07;;;;;;;14.10;5.95;;;;;;;17.33;100.00;101149.75;5059408;28;20630;-74
2022/08/22 05:03:40;;;;;;;20.15;6.75;;;;;;;17.41;100.00;101144.78;5059470;28;20132;-74
2022/08/22 05:06:14;;;;;;;19.08;7.05;;;;;;;17.46;100.00;101147.91;5062977;28;20052;-74
2022/08/22 05:08:44;;;;;;;16.75;6.72;;;;;;;17.55;100.00;101148.06;5060419;28;20052;-74
2022/08/22 05:11:18;;;;;;;17.00;7.13;;;;;;;17.60;100.00;101144.78;5062931;28;20048;-75
2022/08/22 05:14:04;;;;;;;23.25;6.88;;;;;;;17.66;100.00;101153.44;5062726;28;20055;-74
2022/08/22 05:16:38;;;;;;;18.92;8.35;;;;;;;17.72;100.00;101154.50;5059838;28;20048;-75
2022/08/22 05:19:11;;;;;;;16.55;7.55;;;;;;;17.81;100.00;101166.66;5060743;28;20059;-74
2022/08/22 05:21:45;;;;;;;21.08;8.00;;;;;;;17.89;100.00;101167.28;5061528;28;20394;-75
2022/08/22 05:24:27;;;;;;;21.55;8.15;;;;;;;18.00;100.00;101171.38;5061950;28;20428;-74
2022/08/22 05:26:56;;;;;;;16.27;7.45;;;;;;;18.10;100.00;101166.78;5065262;28;20060;-74
2022/08/22 05:29:28;;;;;;;20.05;8.30;;;;;;;18.17;100.00;101172.19;5059090;28;20446;-73
2022/08/22 05:32:02;;;;;;;21.25;8.52;;;;;;;18.25;100.00;101167.97;5056809;28;20059;-73
2022/08/22 05:34:37;;;;;;;19.40;8.60;;;;;;;18.29;100.00;101170.69;5060891;28;20244;-74
2022/08/22 05:37:16;;;;;;;18.08;7.57;;;;;;;18.35;100.00;101169.72;5057850;28;20082;-74
2022/08/22 05:39:46;;;;;;;22.60;9.05;;;;;;;18.41;100.00;101170.81;5058932;28;20445;-71
2022/08/22 05:42:27;;;;;;;18.25;8.50;;;;;;;18.49;100.00;101174.97;5058017;28;20056;-72
2022/08/22 05:44:54;;;;;;;18.05;8.52;;;;;;;18.58;100.00;101175.16;5067101;28;20049;-71
2022/08/22 05:47:35;;;;;;;23.75;9.95;;;;;;;18.65;100.00;101172.16;5060777;28;20056;-73
2022/08/22 05:50:11;;;;;;;21.63;9.82;;;;;;;18.72;100.00;101174.78;5056026;28;20052;-72
2022/08/22 05:52:57;;;;;;;19.83;9.13;;;;;;;18.77;100.00;101182.66;5058065;28;20392;-73
2022/08/22 05:55:29;;;;;;;25.35;10.43;;;;;;;18.84;100.00;101181.66;5061363;28;20485;-72
2022/08/22 05:58:20;;;;;;;21.30;9.73;;;;;;;18.91;100.00;101187.06;5066275;28;20509;-73
2022/08/22 06:00:55;;;;;;;23.75;10.82;;;;;;;18.95;100.00;101184.94;5065524;28;20051;-73
2022/08/22 06:03:30;;;;;;;21.83;10.70;;;;;;;19.02;100.00;101179.13;5057390;28;20049;-72
2022/08/22 06:06:02;;;;;;;23.83;9.82;;;;;;;19.09;100.00;101176.13;5067717;28;20052;-73
2022/08/22 06:08:38;;;;;;;18.30;10.02;;;;;;;19.15;100.00;101182.78;5064204;28;20086;-73
2022/08/22 06:11:19;;;;;;;24.05;11.55;;;;;;;19.21;100.00;101178.19;5057161;28;20735;-72
2022/08/22 06:14:02;;;;;;;24.10;10.75;;;;;;;19.27;100.00;101182.06;5060259;28;20446;-72
2022/08/22 06:16:55;;;;;;;23.90;10.55;;;;;;;19.35;100.00;101184.22;5060140;28;20075;-74
2022/08/22 06:19:23;;;;;;;22.52;10.40;;;;;;;19.42;100.00;101175.59;5065791;28;20052;-72
2022/08/22 06:21:52;;;;;;;26.05;11.05;;;;;;;19.47;100.00;101177.81;5058886;28;20163;-74
2022/08/22 06:24:23;;;;;;;24.17;12.18;;;;;;;19.52;100.00;101188.50;5059961;28;20074;-74
2022/08/22 06:26:53;;;;;;;27.02;12.35;;;;;;;19.52;100.00;101173.69;5065324;28;20149;-69
2022/08/22 06:29:33;;;;;;;26.67;12.98;;;;;;;19.58;100.00;101183.88;5064421;28;20040;-73
2022/08/22 06:32:06;;;;;;;22.38;11.48;;;;;;;19.62;100.00;101193.00;5058207;28;20066;-74
2022/08/22 06:34:36;;;;;;;21.45;12.18;;;;;;;19.67;100.00;101191.66;5061672;28;20044;-69
2022/08/22 06:37:08;;;;;;;24.98;11.70;;;;;;;19.71;100.00;101193.13;5057865;28;20162;-73
2022/08/22 06:39:39;;;;;;;21.08;11.30;;;;;;;19.75;100.00;101188.16;5060471;28;20049;-72
2022/08/22 06:42:11;;;;;;;23.75;12.18;;;;;;;19.79;100.00;101196.50;5053100;28;20140;-72
2022/08/22 06:44:43;;;;;;;26.73;12.13;;;;;;;19.81;100.00;101183.56;5059988;28;20443;-72
2022/08/22 06:47:16;;;;;;;23.80;12.43;;;;;;;19.84;100.00;101185.50;5059817;28;20497;-71
2022/08/22 06:49:44;;;;;;;25.73;12.48;;;;;;;19.88;100.00;101176.97;5058735;28;20080;-71
2022/08/22 06:52:22;;;;;;;20.95;12.25;;;;;;;19.93;100.00;101185.59;5061262;28;20053;-72
2022/08/22 06:54:59;;;;;;;26.95;12.63;;;;;;;19.98;100.00;101193.44;5061589;28;20040;-72
2022/08/22 06:57:52;;;;;;;23.27;12.40;;;;;;;20.09;100.00;101188.28;5062789;28;20431;-71
2022/08/22 07:00:19;;;;;;;23.67;12.82;;;;;;;20.20;100.00;101182.34;5051990;28;20079;-71
2022/08/22 07:02:57;;;;;;;20.77;11.55;;;;;;;20.30;100.00;101190.44;5058195;28;20076;-73
2022/08/22 07:05:33;;;;;;;28.58;12.80;;;;;;;20.42;100.00;101189.59;5061800;28;20079;-72
2022/08/22 07:08:07;;;;;;;27.25;13.13;;;;;;;20.54;100.00;101193.63;5060699;28;20045;-72
2022/08/22 07:10:34;;;;;;;24.10;12.65;;;;;;;20.57;100.00;101197.53;5053161;28;20070;-70
2022/08/22 07:13:03;;;;;;;26.95;13.13;;;;;;;20.61;100.00;101198.22;5057791;28;20595;-72
2022/08/22 07:15:34;;;;;;;23.38;12.70;;;;;;;20.71;100.00;101195.03;5062029;28;20046;-72
2022/08/22 07:18:08;;;;;;;26.35;13.52;;;;;;;20.84;100.00;101195.78;5058309;28;20175;-70
2022/08/22 07:20:37;;;;;;;22.33;13.13;;;;;;;21.03;100.00;101196.75;5060345;28;20044;-70
2022/08/22 07:23:35;;;;;;;22.80;13.82;;;;;;;21.22;100.00;101199.22;5056649;28;20135;-71
2022/08/22 07:26:10;;;;;;;23.48;12.10;;;;;;;21.45;100.00;101198.75;5056678;28;20056;-71
2022/08/22 07:28:42;;;;;;;21.83;12.00;;;;;;;21.62;100.00;101202.13;5054277;28;20636;-71
2022/08/22 07:31:48;;;;;;;24.83;12.23;;;;;;;21.83;100.00;101202.09;5054425;28;20076;-71
2022/08/22 07:34:41;;;;;;;25.25;12.77;;;;;;;22.07;100.00;101196.75;5060657;28;20059;-72
2022/08/22 07:37:25;;;;;;;23.98;12.20;;;;;;;22.25;100.00;101200.41;5057506;28;20500;-72
2022/08/22 07:40:37;;;;;;;20.90;12.43;;;;;;;22.37;100.00;101204.31;5065379;28;20052;-71
2022/08/22 07:43:30;;;;;;;28.77;12.93;;;;;;;22.45;100.00;101202.78;5056468;28;20047;-72
2022/08/22 07:46:28;;;;;;;27.75;12.05;;;;;;;22.65;100.00;101205.97;5059507;28;20057;-72
2022/08/22 07:49:22;;;;;;;22.95;11.13;;;;;;;22.88;100.00;101204.59;5055089;28;20059;-71
2022/08/22 07:52:00;;;;;;;25.00;11.10;;;;;;;23.12;99.59;101208.34;5049706;28;20261;-72
2022/08/22 07:55:00;;;;;;;25.70;11.93;;;;;;;23.22;94.42;101210.69;5060917;28;20056;-71
2022/08/22 07:57:36;;;;;;;30.77;10.75;;;;;;;23.33;94.66;101204.56;5057379;28;20052;-71
2022/08/22 08:00:13;;;;;;;21.60;10.38;;;;;;;23.44;93.25;101211.31;5053005;28;20164;-71
2022/08/22 08:02:50;;;;;;;24.75;10.60;;;;;;;23.58;92.08;101209.84;5052263;28;20132;-71
2022/08/22 08:05:21;;;;;;;23.48;10.38;;;;;;;23.71;92.97;101210.44;5054425;28;20424;-71
2022/08/22 08:07:50;;;;;;;24.63;10.00;;;;;;;23.78;91.97;101207.28;5056975;28;20515;-69
2022/08/22 08:10:24;;;;;;;24.45;10.30;;;;;;;23.89;91.70;101205.50;5056989;28;20049;-71
2022/08/22 08:12:57;;;;;;;23.87;9.40;;;;;;;24.07;89.64;101210.34;5054562;28;20135;-70
2022/08/22 08:15:32;;;;;;;18.27;8.98;;;;;;;24.23;87.74;101196.56;5051273;28;20311;-69
2022/08/22 08:18:04;;;;;;;20.00;9.98;;;;;;;24.24;86.37;101195.34;5054646;28;20493;-71
2022/08/22 08:20:34;;;;;;;18.58;9.27;;;;;;;24.39;86.96;101195.38;5055146;28;20048;-69
2022/08/22 08:23:04;;;;;;;19.60;8.85;;;;;;;24.48;83.88;101195.34;5060616;28;20097;-72
2022/08/22 08:25:56;;;;;;;20.02;9.00;;;;;;;24.58;82.42;101194.00;5055656;28;20503;-70
2022/08/22 08:28:36;;;;;;;19.27;7.97;;;;;;;24.70;81.40;101188.13;5051912;28;20135;-69
2022/08/22 08:31:29;;;;;;;21.52;9.93;;;;;;;24.81;79.92;101188.34;5058389;28;20106;-68
2022/08/22 08:34:05;;;;;;;17.70;7.65;;;;;;;24.99;77.79;101176.09;5062664;28;20048;-72
2022/08/22 08:36:57;;;;;;;23.98;8.80;;;;;;;25.18;76.25;101183.16;5063643;28;20446;-70
2022/08/22 08:39:56;;;;;;;16.80;7.40;;;;;;;25.37;74.38;101180.97;5057160;28;20083;-70
2022/08/22 08:46:01;;;;;;;20.00;7.20;;;;;;;25.74;72.37;101165.88;5066031;28;20044;-73
2022/08/22 08:48:49;;;;;;;15.73;6.43;;;;;;;25.95;71.35;101161.81;5067319;28;20053;-72
2022/08/22 08:51:15;;;;;;;15.20;5.63;;;;;;;26.17;68.29;101155.72;5061961;28;20500;-70
2022/08/22 08:53:48;;;;;;;12.43;4.60;;;;;;;26.33;64.89;101153.13;5060284;28;20147;-69
2022/08/22 08:56:40;;;;;;;13.50;4.43;;;;;;;26.50;62.52;101147.66;5052527;28;20082;-69
2022/08/22 08:59:21;;;;;;;12.73;5.10;;;;;;;26.56;59.22;101149.28;5052462;28;20045;-70
2022/08/22 09:01:54;;;;;;;11.95;4.40;;;;;;;26.65;61.90;101149.19;5054129;28;20049;-69
2022/08/22 09:04:42;;;;;;;16.10;4.68;;;;;;;26.68;59.13;101153.06;5054596;28;20052;-71
2022/08/22 09:07:24;;;;;;;13.13;4.63;;;;;;;26.66;58.08;101142.22;5064614;28;20060;-71
2022/08/22 09:10:15;;;;;;;13.82;4.45;;;;;;;26.65;57.41;101151.22;5059635;28;20106;-71
2022/08/22 09:12:49;;;;;;;10.95;4.07;;;;;;;26.59;59.09;101145.44;5063366;28;20041;-69
2022/08/22 09:15:47;;;;;;;10.90;3.95;;;;;;;26.51;59.53;101140.69;5053350;28;20045;-69
2022/08/22 09:18:51;;;;;;;13.35;3.97;;;;;;;26.50;58.16;101139.94;5058442;28;20044;-70
2022/08/22 09:21:50;;;;;;;11.95;3.83;;;;;;;26.52;56.97;101140.22;5058224;28;20163;-68
2022/08/22 09:24:19;;;;;;;9.00;3.20;;;;;;;26.63;59.76;101136.78;5058602;28;20048;-69
2022/08/22 09:27:01;;;;;;;10.77;3.20;;;;;;;26.70;55.92;101139.16;5066820;28;20135;-69
2022/08/22 09:29:41;;;;;;;12.32;3.40;;;;;;;26.81;53.35;101137.25;5058819;28;20123;-70
2022/08/22 09:32:41;;;;;;;11.40;3.03;;;;;;;26.81;52.19;101127.94;5053517;28;20057;-69
2022/08/22 09:35:10;;;;;;;10.70;3.42;;;;;;;26.77;54.39;101130.22;5063974;28;20070;-70
2022/08/22 09:38:04;;;;;;;7.78;2.80;;;;;;;26.89;53.34;101115.63;5058640;28;20127;-69
2022/08/22 09:40:43;;;;;;;12.18;2.88;;;;;;;27.05;52.13;101125.59;5064917;28;20126;-69
2022/08/22 09:43:17;;;;;;;10.50;3.30;;;;;;;27.17;51.88;101118.75;5057842;28;20147;-71
2022/08/22 09:45:47;;;;;;;9.60;3.03;;;;;;;27.31;52.02;101112.97;5059148;28;20071;-72
2022/08/22 09:48:18;;;;;;;9.52;2.63;;;;;;;27.33;50.04;101101.09;5035039;28;20257;-73
2022/08/22 09:51:00;;;;;;;6.10;2.63;;;;;;;27.34;49.75;101105.50;5036867;28;20048;-71
2022/08/22 09:54:10;;;;;;;7.82;2.25;;;;;;;27.46;47.89;101107.16;5043708;28;20063;-72
2022/08/22 09:56:42;;;;;;;10.30;2.78;;;;;;;27.55;48.34;101109.03;5048672;28;20048;-71
2022/08/22 09:59:21;;;;;;;8.43;2.67;;;;;;;27.59;46.78;101103.88;5052033;28;20089;-72
2022/08/22 10:02:12;;;;;;;7.13;2.85;;;;;;;27.58;46.34;101094.59;5045543;28;20106;-73
2022/08/22 10:05:08;;;;;;;12.07;2.72;;;;;;;27.76;46.04;101102.72;5043210;28;20210;-72
2022/08/22 10:07:52;;;;;;;12.85;3.00;;;;;;;27.90;45.94;101110.34;5054796;28;20084;-72
2022/08/22 10:10:37;;;;;;;9.48;2.88;;;;;;;28.03;46.09;101104.22;5047662;28;20106;-73
2022/08/22 10:13:32;;;;;;;18.17;2.63;;;;;;;28.05;42.87;101093.09;5046032;28;20287;-70
2022/08/22 10:16:21;;;;;;;12.82;2.72;;;;;;;28.06;44.64;101086.91;5040826;28;20511;-70
2022/08/22 10:18:57;;;;;;;7.20;2.45;;;;;;;28.30;44.50;101090.13;5038423;28;20198;-70
2022/08/22 10:21:44;;;;;;;12.32;3.10;;;;;;;28.53;43.81;101091.81;5043054;28;20056;-71
2022/08/22 10:24:35;;;;;;;14.65;3.22;;;;;;;28.70;43.11;101089.00;5052421;28;20049;-70
2022/08/22 10:27:21;;;;;;;7.50;2.50;;;;;;;28.82;42.15;101088.50;5049310;28;20056;-70
2022/08/22 10:30:08;;;;;;;13.57;3.10;;;;;;;28.93;42.33;101082.06;5041649;28;20053;-70
2022/08/22 10:33:05;;;;;;;9.25;2.78;;;;;;;28.98;40.12;101070.66;5044584;28;20048;-71
2022/08/22 10:35:59;;;;;;;11.15;3.80;;;;;;;28.90;39.88;101077.38;5038800;28;20081;-71
2022/08/22 10:38:39;;;;;;;11.98;3.28;;;;;;;28.87;41.74;101073.50;5052957;28;20068;-71
2022/08/22 10:41:46;;;;;;;11.23;2.80;;;;;;;29.01;40.85;101075.34;5032430;28;20798;-71
2022/08/22 10:44:24;;;;;;;11.70;2.47;;;;;;;29.27;41.09;101080.81;5039254;28;20154;-70
2022/08/22 10:46:54;;;;;;;8.25;2.55;;;;;;;29.56;39.79;101081.06;5040367;28;20059;-71
2022/08/22 10:49:38;;;;;;;5.57;2.25;;;;;;;29.71;38.52;101080.81;5039977;28;20057;-72
2022/08/22 10:52:09;;;;;;;9.10;3.08;;;;;;;29.73;37.79;101080.28;5046030;28;20056;-72
2022/08/22 10:54:47;;;;;;;11.55;2.88;;;;;;;29.73;38.88;101081.09;5044008;28;20060;-70
2022/08/22 10:57:44;;;;;;;12.90;3.47;;;;;;;30.19;37.90;101081.22;5043019;28;20053;-71
2022/08/22 11:00:29;;;;;;;11.20;2.45;;;;;;;30.22;36.93;101079.41;5049295;28;20055;-70
2022/08/22 11:03:03;;;;;;;13.10;2.97;;;;;;;30.27;37.00;101067.19;5041938;28;20048;-71
2022/08/22 11:05:41;;;;;;;10.38;3.13;;;;;;;30.12;37.59;101073.19;5046818;28;20048;-71
2022/08/22 11:08:30;;;;;;;9.23;2.30;;;;;;;29.94;35.53;101067.28;5041655;28;20718;-71
2022/08/22 11:11:03;;;;;;;11.60;3.25;;;;;;;29.95;36.89;101068.81;5043104;28;20052;-69
2022/08/22 11:13:39;;;;;;;9.32;2.72;;;;;;;29.99;36.57;101061.53;5042288;28;20699;-69
2022/08/22 11:16:15;;;;;;;9.45;2.80;;;;;;;30.23;36.14;101056.03;5040864;28;20658;-69
2022/08/22 11:19:04;;;;;;;8.20;3.33;;;;;;;30.49;35.84;101052.78;5047014;28;20071;-70
2022/08/22 11:21:58;;;;;;;11.15;3.45;;;;;;;30.58;35.81;101049.63;5037208;28;20489;-69
2022/08/22 11:24:25;;;;;;;14.95;3.05;;;;;;;30.87;36.81;101046.88;5047781;28;20056;-70
2022/08/22 11:27:26;;;;;;;9.77;3.90;;;;;;;31.11;34.51;101046.94;5043968;28;20139;-69
2022/08/22 11:30:08;;;;;;;7.32;2.70;;;;;;;31.43;35.26;101048.00;5042086;28;20052;-69
2022/08/22 11:33:01;;;;;;;10.48;2.75;;;;;;;31.70;34.29;101046.16;5041497;28;20319;-71
2022/08/22 11:35:45;;;;;;;6.35;2.05;;;;;;;31.80;32.78;101051.03;5042498;28;20056;-70
2022/08/22 11:38:37;;;;;;;9.18;2.55;;;;;;;31.65;33.05;101044.16;5042024;28;20163;-70
2022/08/22 11:41:10;;;;;;;10.25;3.60;;;;;;;31.74;33.98;101044.56;5035853;28;20057;-67
2022/08/22 11:44:00;;;;;;;6.18;2.80;;;;;;;31.62;32.70;101039.50;5039990;28;20788;-70
2022/08/22 11:46:28;;;;;;;14.52;3.10;;;;;;;31.16;33.36;101037.56;5039112;28;20056;-71
2022/08/22 11:49:15;;;;;;;9.30;2.72;;;;;;;31.10;33.58;101038.91;5047458;28;20044;-70
2022/08/22 11:52:07;;;;;;;13.40;2.72;;;;;;;31.19;33.17;101041.44;5039276;28;20458;-70
2022/08/22 11:54:46;;;;;;;9.75;2.67;;;;;;;31.19;33.52;101032.84;5038018;28;20057;-70
2022/08/22 11:57:24;;;;;;;8.90;2.75;;;;;;;30.98;33.53;101037.44;5046068;28;20072;-70
2022/08/22 12:00:15;;;;;;;8.07;3.60;;;;;;;30.94;33.63;101031.25;5044218;28;20056;-69
2022/08/22 12:02:55;;;;;;;10.00;2.92;;;;;;;30.93;33.66;101033.31;5040588;28;20048;-71
2022/08/22 12:05:28;;;;;;;6.50;2.47;;;;;;;30.94;34.06;101034.88;5046753;28;20059;-68
2022/08/22 12:08:10;;;;;;;9.90;2.70;;;;;;;30.94;34.09;101028.41;5040741;28;20063;-69
2022/08/22 12:10:52;;;;;;;8.32;2.85;;;;;;;30.92;34.07;101031.00;5048342;28;20048;-67
2022/08/22 12:13:44;;;;;;;7.97;3.03;;;;;;;30.86;34.48;101025.31;5045078;28;20052;-71
2022/08/22 12:16:38;;;;;;;7.28;2.28;;;;;;;30.79;33.83;101019.41;5047430;28;20049;-72
2022/08/22 12:19:19;;;;;;;7.80;2.60;;;;;;;30.81;34.22;101017.56;5053587;28;20568;-71
2022/08/22 12:22:16;;;;;;;8.30;2.65;;;;;;;30.82;34.32;101016.28;5049019;28;20868;-68
2022/08/22 12:25:07;;;;;;;10.10;3.37;;;;;;;30.83;34.86;101014.16;5047550;28;20132;-69
2022/08/22 12:27:52;;;;;;;7.20;2.70;;;;;;;30.85;34.75;101014.44;5042532;28;20599;-70
2022/08/22 12:30:33;;;;;;;7.85;2.63;;;;;;;30.79;34.18;101010.84;5039430;28;20060;-70